Startpagina
METAR-TAF:

METAR-TAF

Vliegvelden :

Xi'an, China

Internationale luchthaven Xi'an Xianyang

breedte: 34-26N, lengte: 108-45E, hoogte: 479 m

Actueel weer

Dit bericht is 45 minuten geleden gemaakt, om 13:00 UTC
Wind 8 kt uit het oostnoordoosten
Temperatuur 27°C
Vochtigheid 84%
Druk 1006 hPa
Zicht 10 km of meer
Verspreide wolken op 4000 ft

METAR: ZLXY 211300Z 06004MPS 9999 SCT040 27/24 Q1006 NOSIG

Tijdstip: 21:45 (13:45 UTC)

Verwachting

Dit bericht is 4 uur en het 15 minuten geleden gemaakt, om 09:30 UTC
Verwachting geldig van 21 om 12 UTC tot 22 om 12 UTC
Wind 6 kt uit het oostnoordoosten
Zicht: 3000 m
Verspreide wolken op 4000 ft
nevel
Tijdelijke
van 22 om 06 UTC tot 22 om 12 UTC
Weinig wolken op 4000 ft, Cumulonimbus.
onweer, lichte regen

TAF: ZLXY 210930Z 2112/2212 06003MPS 3000 BR SCT040 TX31/2207Z TN23/2122Z TEMPO 2206/2212 -TSRA FEW040CB

Waarnemingen en weersverwachtingen van meer dan 4000 vliegvelden (METAR en TAF).

De beschikbare stations zijn de gele en rode punten op de kaart.

Ga met uw muis naar het station om de naam te zien.

Klik dan om waarnemingen en weersverwachtingen te zien.

kaart wijzigen: klik op de groene knoppen met een zwart kruis om in te zoomen, op de groene knop met een streepje om uit te zoomen of op de groene pijlen voor aangrenzende kaarten.


METAR-TAF: